Sektagli, Russia
Current Conditions -  °F | °C
As of 2:00 AM on Tuesday 25 Nov 2014 (Local Time) from UHBB Reporting Station
Clear Clear  
Wind Chill: -2°   Ceiling: Unl
Heat Index:   Visibility: 6mi
Dew Point:   Wind: 4mph
Humidity: 85%   Direction: NA
Pressure: 30.15"   Gusts: NA
Location:  50.42°N, 131°E
Report Text: UHBB 241600Z VRB02MPS CAVOK M14/M16 Q1021 NOSIG RMK QFE748/099836810350
Loading
Personal Weather Stations






























Interactive Weather Map New forecast layout! Learn more

10-Day Weather Forecast

Advertisements
Track Severe Weather on mobile